createdAt,value
2018-07-26T00:00:40.529Z,95470
2018-07-26T00:01:42.696Z,95469.7
2018-07-26T00:02:44.878Z,95471.8
2018-07-26T00:03:46.764Z,95471.8
2018-07-26T00:04:49.205Z,95473.4
2018-07-26T00:05:51.653Z,95478.2
2018-07-26T00:06:53.840Z,95472.9
2018-07-26T00:07:56.276Z,95472.5
2018-07-26T00:08:58.454Z,95470.5
2018-07-26T00:10:00.903Z,95470.3
2018-07-26T00:11:03.359Z,95471.8
2018-07-26T00:12:05.259Z,95468.3
2018-07-26T00:13:07.707Z,95469
2018-07-26T00:14:09.869Z,95470.1
2018-07-26T00:15:12.315Z,95470.9
2018-07-26T00:16:14.785Z,95466.3
2018-07-26T00:17:16.964Z,95467.2
2018-07-26T00:18:18.583Z,95469.8
2018-07-26T00:19:20.769Z,95470.5
2018-07-26T00:20:23.234Z,95471.3
2018-07-26T00:21:25.420Z,95470.4
2018-07-26T00:22:27.865Z,95470.5
2018-07-26T00:23:29.474Z,95470.6
2018-07-26T00:24:31.939Z,95473
2018-07-26T00:25:34.118Z,95470.1
2018-07-26T00:26:36.570Z,95471.8
2018-07-26T00:27:38.988Z,95473.6
2018-07-26T00:28:40.933Z,95474.7
2018-07-26T00:29:42.836Z,95472.9
2018-07-26T00:30:45.009Z,95476.2
2018-07-26T00:31:47.180Z,95475.7
2018-07-26T00:32:49.325Z,95480.3
2018-07-26T00:33:51.773Z,95473.4
2018-07-26T00:34:53.957Z,95477.2
2018-07-26T00:35:56.125Z,95477
2018-07-26T00:36:58.301Z,95475.7
2018-07-26T00:38:00.752Z,95475.7
2018-07-26T00:39:03.197Z,95477.9
2018-07-26T00:40:05.376Z,95479.3
2018-07-26T00:41:07.817Z,95479.9
2018-07-26T00:42:09.735Z,95477.4
2018-07-26T00:43:11.920Z,95479.5
2018-07-26T00:44:14.100Z,95477.7
2018-07-26T00:45:16.535Z,95476.2
2018-07-26T00:46:18.718Z,95480.3
2018-07-26T00:47:20.904Z,95480.5
2018-07-26T00:48:23.367Z,95487.4
2018-07-26T00:49:25.258Z,95483.3
2018-07-26T00:50:27.444Z,95487.4
2018-07-26T00:51:29.890Z,95488.1
2018-07-26T00:52:32.070Z,95485.2
2018-07-26T00:53:33.980Z,95484.8
2018-07-26T00:54:36.428Z,95486.9
2018-07-26T00:55:38.868Z,95489.8
2018-07-26T00:56:41.045Z,95490.2
2018-07-26T00:57:42.949Z,95491.8
2018-07-26T00:58:45.389Z,95486.6
2018-07-26T00:59:47.844Z,95486.8
2018-07-26T01:00:50.277Z,95485.6
2018-07-26T01:01:51.630Z,95486.4
2018-07-26T01:02:54.072Z,95487.8
2018-07-26T01:03:56.258Z,95487.5
2018-07-26T01:04:58.704Z,95483.8
2018-07-26T01:06:01.152Z,95483
2018-07-26T01:07:03.600Z,95482.7
2018-07-26T01:08:06.064Z,95479.7
2018-07-26T01:09:08.506Z,95483.2
2018-07-26T01:10:10.426Z,95477.8
2018-07-26T01:11:12.066Z,95478.6
2018-07-26T01:12:13.976Z,95479.8
2018-07-26T01:13:16.157Z,95480.6
2018-07-26T01:14:18.607Z,95485
2018-07-26T01:15:20.771Z,95484.6
2018-07-26T01:16:22.675Z,95484.2
2018-07-26T01:17:25.121Z,95485.7
2018-07-26T01:18:27.579Z,95485.7
2018-07-26T01:19:29.491Z,95484.1
2018-07-26T01:20:31.130Z,95484.6
2018-07-26T01:21:33.588Z,95483.3
2018-07-26T01:22:35.781Z,95481.6
2018-07-26T01:23:37.385Z,95480.5
2018-07-26T01:24:39.833Z,95479.2
2018-07-26T01:25:42.286Z,95483.6
2018-07-26T01:26:44.737Z,95481.1
2018-07-26T01:27:46.916Z,95478.2
2018-07-26T01:28:49.094Z,95475.7
2018-07-26T01:29:51.008Z,95475.2
2018-07-26T01:30:53.470Z,95476.6
2018-07-26T01:31:55.917Z,95471.2
2018-07-26T01:32:58.102Z,95474.5
2018-07-26T01:34:00.544Z,95468
2018-07-26T01:35:03.006Z,95476.7
2018-07-26T01:36:05.456Z,95472.3
2018-07-26T01:37:07.336Z,95472.4
2018-07-26T01:38:09.777Z,95477.7
2018-07-26T01:39:12.226Z,95473.1
2018-07-26T01:40:14.677Z,95471.2
2018-07-26T01:41:16.842Z,95475.9
2018-07-26T01:42:19.282Z,95471.3
2018-07-26T01:43:21.726Z,95468.4
2018-07-26T01:44:23.891Z,95469.9
2018-07-26T01:45:26.339Z,95473.2
2018-07-26T01:46:28.487Z,95468.8
2018-07-26T01:47:30.684Z,95469.6
2018-07-26T01:48:32.350Z,95470.1
2018-07-26T01:49:34.232Z,95468.9
2018-07-26T01:50:36.113Z,95461.7
2018-07-26T01:51:38.549Z,95467.8
2018-07-26T01:52:40.724Z,95463.2
2018-07-26T01:53:42.354Z,95464.3
2018-07-26T01:54:44.252Z,95461.9
2018-07-26T01:55:46.707Z,95466.5
2018-07-26T01:56:48.856Z,95464
2018-07-26T01:57:50.745Z,95464.5
2018-07-26T01:58:52.647Z,95459.3
2018-07-26T01:59:54.827Z,95462.7
2018-07-26T02:00:57.274Z,95457.5
2018-07-26T02:01:59.716Z,95458.6
2018-07-26T02:03:01.889Z,95458.4
2018-07-26T02:04:03.802Z,95456.7
2018-07-26T02:05:05.970Z,95451.5
2018-07-26T02:06:08.419Z,95452.7
2018-07-26T02:07:10.859Z,95450.1
2018-07-26T02:08:13.049Z,95451.4
2018-07-26T02:09:15.491Z,95450.1
2018-07-26T02:10:17.933Z,95454
2018-07-26T02:11:20.391Z,95449.3
2018-07-26T02:12:22.836Z,95452.5
2018-07-26T02:13:24.997Z,95449.2
2018-07-26T02:14:26.886Z,95451.9
2018-07-26T02:15:29.075Z,95450.9
2018-07-26T02:16:31.257Z,95449.4
2018-07-26T02:17:33.754Z,95450.8
2018-07-26T02:18:35.647Z,95455.7
2018-07-26T02:19:37.817Z,95448.7
2018-07-26T02:20:40.009Z,95452.5
2018-07-26T02:21:42.184Z,95452.3
2018-07-26T02:22:44.624Z,95454.7
2018-07-26T02:23:46.799Z,95451.2
2018-07-26T02:24:49.249Z,95449.2
2018-07-26T02:25:51.709Z,95450.3
2018-07-26T02:26:53.858Z,95450.9
2018-07-26T02:27:55.760Z,95449.7
2018-07-26T02:28:57.925Z,95455.5
2018-07-26T02:30:00.379Z,95450.4
2018-07-26T02:31:03.112Z,95451.9
2018-07-26T02:32:05.324Z,95451.6
2018-07-26T02:33:07.500Z,95455
2018-07-26T02:34:09.389Z,95454.3
2018-07-26T02:35:11.306Z,95449.9
2018-07-26T02:36:13.476Z,95448.1
2018-07-26T02:37:15.379Z,95448.7
2018-07-26T02:38:16.988Z,95449.4
2018-07-26T02:39:19.150Z,95447.6
2018-07-26T02:40:21.337Z,95449.3
2018-07-26T02:41:23.491Z,95446.9
2018-07-26T02:42:25.390Z,95447.3
2018-07-26T02:43:27.538Z,95444.5
2018-07-26T02:44:29.705Z,95447.3
2018-07-26T02:45:31.890Z,95449.6
2018-07-26T02:46:34.065Z,95451.8
2018-07-26T02:47:36.244Z,95449.8
2018-07-26T02:48:38.688Z,95450.4
2018-07-26T02:49:40.863Z,95450.6
2018-07-26T02:50:43.321Z,95453
2018-07-26T02:51:45.468Z,95453.9
2018-07-26T02:52:47.647Z,95453.6
2018-07-26T02:53:50.102Z,95457.7
2018-07-26T02:54:52.547Z,95461.2
2018-07-26T02:55:54.999Z,95461.5
2018-07-26T02:56:57.186Z,95461.1
2018-07-26T02:57:59.337Z,95462.1
2018-07-26T02:59:01.781Z,95461.3
2018-07-26T03:00:04.261Z,95457.5
2018-07-26T03:01:06.434Z,95457.4
2018-07-26T03:02:08.597Z,95457.2
2018-07-26T03:03:10.787Z,95461.7
2018-07-26T03:04:12.967Z,95460.3
2018-07-26T03:05:14.862Z,95460.3
2018-07-26T03:06:17.037Z,95458.3
2018-07-26T03:07:19.180Z,95453.6
2018-07-26T03:08:20.857Z,95459.3
2018-07-26T03:09:23.296Z,95456.6
2018-07-26T03:10:25.739Z,95458.3
2018-07-26T03:11:27.923Z,95453.9
2018-07-26T03:12:30.100Z,95457.4
2018-07-26T03:13:32.545Z,95454.1
2018-07-26T03:14:34.992Z,95448.7
2018-07-26T03:15:37.136Z,95453.6
2018-07-26T03:16:39.586Z,95451.1
2018-07-26T03:17:42.036Z,95455.7
2018-07-26T03:18:44.206Z,95460
2018-07-26T03:19:46.356Z,95457.9
2018-07-26T03:20:48.913Z,95457.5
2018-07-26T03:21:51.126Z,95459.1
2018-07-26T03:22:53.560Z,95462.3
2018-07-26T03:23:56.001Z,95462.8
2018-07-26T03:24:57.903Z,95461.6
2018-07-26T03:26:00.046Z,95461.2
2018-07-26T03:27:02.496Z,95460.1
2018-07-26T03:28:04.948Z,95459.4
2018-07-26T03:29:07.103Z,95464.4
2018-07-26T03:30:09.007Z,95462.7
2018-07-26T03:31:11.183Z,95464.7
2018-07-26T03:32:13.627Z,95464.3
2018-07-26T03:33:16.076Z,95469.8
2018-07-26T03:34:17.965Z,95468.8
2018-07-26T03:35:20.406Z,95471.4
2018-07-26T03:36:22.584Z,95471.8
2018-07-26T03:37:24.490Z,95469.1
2018-07-26T03:38:26.946Z,95473.2
2018-07-26T03:39:29.109Z,95470.7
2018-07-26T03:40:31.287Z,95473.2
2018-07-26T03:41:33.466Z,95469
2018-07-26T03:42:35.923Z,95471.5
2018-07-26T03:43:37.998Z,95468.6
2018-07-26T03:44:39.873Z,95468.3
2018-07-26T03:45:42.060Z,95470.9
2018-07-26T03:46:44.217Z,95467.4
2018-07-26T03:47:46.391Z,95471.9
2018-07-26T03:48:48.566Z,95471.2
2018-07-26T03:49:50.717Z,95473.8
2018-07-26T03:50:53.204Z,95472.6
2018-07-26T03:51:55.667Z,95471.8
2018-07-26T03:52:57.842Z,95472.4
2018-07-26T03:54:00.294Z,95470.2
2018-07-26T03:55:02.182Z,95472.6
2018-07-26T03:56:04.364Z,95471.8
2018-07-26T03:57:06.276Z,95473.2
2018-07-26T03:58:08.188Z,95475.5
2018-07-26T03:59:10.645Z,95471.1
2018-07-26T04:00:12.554Z,95470.9
2018-07-26T04:01:14.733Z,95469.8
2018-07-26T04:02:16.915Z,95469.9
2018-07-26T04:03:18.931Z,95473.1
2018-07-26T04:04:21.142Z,95476.2
2018-07-26T04:05:23.620Z,95476.5
2018-07-26T04:06:25.887Z,95471.1
2018-07-26T04:07:27.811Z,95473.4
2018-07-26T04:08:29.956Z,95471.7
2018-07-26T04:09:32.110Z,95468.2
2018-07-26T04:10:34.290Z,95471.9
2018-07-26T04:11:36.738Z,95471.5
2018-07-26T04:12:39.183Z,95474
2018-07-26T04:13:40.818Z,95473.3
2018-07-26T04:14:42.727Z,95473.5
2018-07-26T04:15:44.905Z,95475.8
2018-07-26T04:16:46.820Z,95472.2
2018-07-26T04:17:49.016Z,95473
2018-07-26T04:18:51.459Z,95475.7
2018-07-26T04:19:53.909Z,95474.2
2018-07-26T04:20:56.064Z,95476.7
2018-07-26T04:21:58.234Z,95474.8
2018-07-26T04:23:00.417Z,95479.6
2018-07-26T04:24:02.871Z,95476.8
2018-07-26T04:25:05.051Z,95478
2018-07-26T04:26:07.464Z,95476.9
2018-07-26T04:27:09.081Z,95478.1
2018-07-26T04:28:11.258Z,95472
2018-07-26T04:29:13.445Z,95473.9
2018-07-26T04:30:15.886Z,95469.5
2018-07-26T04:31:18.334Z,95472
2018-07-26T04:32:20.779Z,95471.6
2018-07-26T04:33:22.921Z,95474.4
2018-07-26T04:34:24.543Z,95473.7
2018-07-26T04:35:26.715Z,95473.6
2018-07-26T04:36:28.874Z,95478.8
2018-07-26T04:37:30.515Z,95475.9
2018-07-26T04:38:32.660Z,95478.3
2018-07-26T04:39:33.990Z,95476.6
2018-07-26T04:40:36.151Z,95478.2
2018-07-26T04:41:38.316Z,95478.2
2018-07-26T04:42:40.480Z,95483.1
2018-07-26T04:43:42.392Z,95484.7
2018-07-26T04:44:44.834Z,95480.4
2018-07-26T04:45:47.292Z,95481.3
2018-07-26T04:46:49.450Z,95479.8
2018-07-26T04:47:51.628Z,95482.2
2018-07-26T04:48:53.851Z,95482.3
2018-07-26T04:49:55.726Z,95487.7
2018-07-26T04:50:57.645Z,95487.8
2018-07-26T04:51:59.554Z,95488.5
2018-07-26T04:53:01.733Z,95490.5
2018-07-26T04:54:03.641Z,95490.1
2018-07-26T04:55:06.081Z,95490.6
2018-07-26T04:56:07.990Z,95489.9
2018-07-26T04:57:09.886Z,95490.8
2018-07-26T04:58:12.338Z,95491.3
2018-07-26T04:59:14.795Z,95490.5
2018-07-26T05:00:17.291Z,95492
2018-07-26T05:01:19.216Z,95491
2018-07-26T05:02:21.394Z,95492.5
2018-07-26T05:03:23.837Z,95494.4
2018-07-26T05:04:26.010Z,95495
2018-07-26T05:05:28.179Z,95491.6
2018-07-26T05:06:30.701Z,95493.8
2018-07-26T05:07:33.194Z,95490.8
2018-07-26T05:08:35.652Z,95493
2018-07-26T05:09:37.819Z,95493.5
2018-07-26T05:10:40.267Z,95489.3
2018-07-26T05:11:42.433Z,95491.9
2018-07-26T05:12:44.886Z,95496.6
2018-07-26T05:13:47.050Z,95494.3
2018-07-26T05:14:49.227Z,95493.5
2018-07-26T05:15:51.153Z,95498.4
2018-07-26T05:16:53.602Z,95496.1
2018-07-26T05:17:55.787Z,95497.3
2018-07-26T05:18:58.019Z,95499.6
2018-07-26T05:20:00.156Z,95503.6
2018-07-26T05:21:02.607Z,95504.8
2018-07-26T05:22:04.493Z,95502.8
2018-07-26T05:23:06.978Z,95502.9
2018-07-26T05:24:09.435Z,95504.9
2018-07-26T05:25:11.882Z,95504.9
2018-07-26T05:26:14.065Z,95507.2
2018-07-26T05:27:16.511Z,95510.6
2018-07-26T05:28:18.727Z,95505.1
2018-07-26T05:29:21.188Z,95504.5
2018-07-26T05:30:23.355Z,95505.4
2018-07-26T05:31:25.237Z,95509.1
2018-07-26T05:32:27.710Z,95499.9
2018-07-26T05:33:29.620Z,95508.3
2018-07-26T05:34:32.070Z,95505.6
2018-07-26T05:35:34.539Z,95501.6
2018-07-26T05:36:36.992Z,95507.4
2018-07-26T05:37:39.373Z,95506.9
2018-07-26T05:38:41.520Z,95511.3
2018-07-26T05:39:43.967Z,95511.7
2018-07-26T05:40:45.864Z,95512.3
2018-07-26T05:41:48.312Z,95508.9
2018-07-26T05:42:50.241Z,95509.6
2018-07-26T05:43:52.679Z,95507.5
2018-07-26T05:44:55.122Z,95507.7
2018-07-26T05:45:57.307Z,95513.8
2018-07-26T05:46:59.489Z,95511.1
2018-07-26T05:48:01.656Z,95509.9
2018-07-26T05:49:03.536Z,95512
2018-07-26T05:50:05.980Z,95512
2018-07-26T05:51:08.435Z,95516.3
2018-07-26T05:52:10.482Z,95511.7
2018-07-26T05:53:12.783Z,95514.8
2018-07-26T05:54:15.235Z,95516.3
2018-07-26T05:55:17.689Z,95516.1
2018-07-26T05:56:19.572Z,95519
2018-07-26T05:57:21.498Z,95515.7
2018-07-26T05:58:23.429Z,95519.2
2018-07-26T05:59:25.659Z,95521.4
2018-07-26T06:00:27.789Z,95521.9
2018-07-26T06:01:29.955Z,95526.3
2018-07-26T06:02:32.136Z,95523.1
2018-07-26T06:03:34.322Z,95521.6
2018-07-26T06:04:36.502Z,95526.5
2018-07-26T06:05:38.959Z,95522.6
2018-07-26T06:06:41.401Z,95522.7
2018-07-26T06:07:43.292Z,95524.7
2018-07-26T06:08:45.737Z,95520
2018-07-26T06:09:48.181Z,95519.5
2018-07-26T06:10:50.631Z,95525.9
2018-07-26T06:11:52.785Z,95521.9
2018-07-26T06:12:55.226Z,95527
2018-07-26T06:13:57.390Z,95526
2018-07-26T06:14:59.835Z,95524.8
2018-07-26T06:16:02.326Z,95525.8
2018-07-26T06:17:04.268Z,95525.2
2018-07-26T06:18:06.455Z,95526.1
2018-07-26T06:19:08.663Z,95525.7
2018-07-26T06:20:11.097Z,95531.3
2018-07-26T06:21:13.279Z,95530.9
2018-07-26T06:22:15.447Z,95527.9
2018-07-26T06:23:17.619Z,95529.3
2018-07-26T06:24:20.062Z,95531.1
2018-07-26T06:25:21.972Z,95531.7
2018-07-26T06:26:24.146Z,95532.5
2018-07-26T06:27:26.300Z,95529.8
2018-07-26T06:28:28.483Z,95530.1
2018-07-26T06:29:30.405Z,95532.4
2018-07-26T06:30:32.838Z,95525.8
2018-07-26T06:31:35.290Z,95528.7
2018-07-26T06:32:37.730Z,95532.3
2018-07-26T06:33:40.552Z,95528
2018-07-26T06:34:42.731Z,95529.1
2018-07-26T06:35:44.375Z,95530.1
2018-07-26T06:36:45.957Z,95530.2
2018-07-26T06:37:48.412Z,95530.5
2018-07-26T06:38:50.866Z,95530.2
2018-07-26T06:39:53.331Z,95523.7
2018-07-26T06:40:55.508Z,95528.9
2018-07-26T06:41:57.691Z,95522.9
2018-07-26T06:43:00.154Z,95529.7
2018-07-26T06:44:02.305Z,95530.9
2018-07-26T06:45:04.756Z,95528
2018-07-26T06:46:06.929Z,95526.7
2018-07-26T06:47:09.255Z,95528.6
2018-07-26T06:48:11.399Z,95530.9
2018-07-26T06:49:13.578Z,95533.7
2018-07-26T06:50:15.765Z,95534.3
2018-07-26T06:51:17.667Z,95531.9
2018-07-26T06:52:20.117Z,95528.6
2018-07-26T06:53:22.285Z,95527.6
2018-07-26T06:54:24.777Z,95531.1
2018-07-26T06:55:27.207Z,95531.3
2018-07-26T06:56:29.394Z,95529
2018-07-26T06:57:31.288Z,95529.2
2018-07-26T06:58:33.469Z,95527.8
2018-07-26T06:59:35.917Z,95529
2018-07-26T07:00:38.077Z,95528.9
2018-07-26T07:01:40.251Z,95529.5
2018-07-26T07:02:42.707Z,95533.9
2018-07-26T07:03:45.154Z,95530.6
2018-07-26T07:04:47.605Z,95530.8
2018-07-26T07:05:49.784Z,95530.4
2018-07-26T07:06:51.961Z,95534
2018-07-26T07:07:53.850Z,95529.3
2018-07-26T07:08:56.039Z,95532
2018-07-26T07:09:58.234Z,95531.9
2018-07-26T07:11:00.410Z,95530.3
2018-07-26T07:12:02.585Z,95531.8
2018-07-26T07:13:04.760Z,95529.1
2018-07-26T07:14:06.668Z,95529.3
2018-07-26T07:15:09.116Z,95529
2018-07-26T07:16:11.300Z,95532.2
2018-07-26T07:17:13.472Z,95533.4
2018-07-26T07:18:15.647Z,95531.4
2018-07-26T07:19:17.816Z,95532.4
2018-07-26T07:20:20.001Z,95532
2018-07-26T07:21:21.894Z,95534.4
2018-07-26T07:22:24.077Z,95533.1
2018-07-26T07:23:26.539Z,95538.9
2018-07-26T07:24:28.471Z,95533.5
2018-07-26T07:25:30.650Z,95535.3
2018-07-26T07:26:33.121Z,95536.6
2018-07-26T07:27:35.576Z,95535.6
2018-07-26T07:28:38.021Z,95535.8
2018-07-26T07:29:40.207Z,95538
2018-07-26T07:30:42.664Z,95537
2018-07-26T07:31:45.100Z,95537.1
2018-07-26T07:32:47.274Z,95534.5
2018-07-26T07:33:49.730Z,95536.5
2018-07-26T07:34:51.903Z,95532.9
2018-07-26T07:35:54.101Z,95536.8
2018-07-26T07:36:56.538Z,95532.7
2018-07-26T07:37:58.983Z,95532.6
2018-07-26T07:39:01.150Z,95533.2
2018-07-26T07:40:03.326Z,95535.3
2018-07-26T07:41:05.229Z,95528.4
2018-07-26T07:42:07.685Z,95530.1
2018-07-26T07:43:09.869Z,95534.8
2018-07-26T07:44:11.507Z,95531.6
2018-07-26T07:45:13.673Z,95530.7
2018-07-26T07:46:15.303Z,95534.1
2018-07-26T07:47:18.052Z,95533.6
2018-07-26T07:48:20.352Z,95527.3
2018-07-26T07:49:22.837Z,95531.5
2018-07-26T07:50:25.018Z,95527.3
2018-07-26T07:51:27.197Z,95530.7
2018-07-26T07:52:29.392Z,95526.7
2018-07-26T07:53:31.530Z,95533.3
2018-07-26T07:54:33.683Z,95528.6
2018-07-26T07:55:36.148Z,95532.1
2018-07-26T07:56:38.330Z,95529.5
2018-07-26T07:57:40.783Z,95533.1
2018-07-26T07:58:42.687Z,95531.6
2018-07-26T07:59:44.981Z,95533.6
2018-07-26T08:00:47.507Z,95532.4
2018-07-26T08:01:49.680Z,95531.2
2018-07-26T08:02:52.136Z,95531.9
2018-07-26T08:03:54.592Z,95531.8
2018-07-26T08:04:56.765Z,95529.5
2018-07-26T08:05:58.948Z,95533
2018-07-26T08:07:01.405Z,95529.6
2018-07-26T08:08:03.581Z,95528.6
2018-07-26T08:09:05.755Z,95528.6
2018-07-26T08:10:07.642Z,95528.7
2018-07-26T08:11:09.584Z,95529.1
2018-07-26T08:12:12.067Z,95529.7
2018-07-26T08:13:14.246Z,95531
2018-07-26T08:14:16.714Z,95529.8
2018-07-26T08:15:18.878Z,95529.5
2018-07-26T08:16:21.320Z,95533.3
2018-07-26T08:17:23.487Z,95528.8
2018-07-26T08:18:25.928Z,95530.5
2018-07-26T08:19:27.842Z,95525
2018-07-26T08:20:30.298Z,95529.9
2018-07-26T08:21:32.489Z,95529.5
2018-07-26T08:22:34.931Z,95529.3
2018-07-26T08:23:37.380Z,95528.5
2018-07-26T08:24:39.545Z,95527.8
2018-07-26T08:25:41.732Z,95526.9
2018-07-26T08:26:43.658Z,95528.6
2018-07-26T08:27:45.878Z,95529.1
2018-07-26T08:28:48.342Z,95532.4
2018-07-26T08:29:50.809Z,95532.8
2018-07-26T08:30:53.248Z,95530.8
2018-07-26T08:31:55.117Z,95534.4
2018-07-26T08:32:57.564Z,95531.7
2018-07-26T08:33:59.503Z,95533.5
2018-07-26T08:35:02.087Z,95533.9
2018-07-26T08:36:04.574Z,95527.2
2018-07-26T08:37:07.029Z,95528.1
2018-07-26T08:38:09.174Z,95531.3
2018-07-26T08:39:11.359Z,95532.7
2018-07-26T08:40:13.495Z,95533.2
2018-07-26T08:41:15.950Z,95532.9
2018-07-26T08:42:17.849Z,95535.8
2018-07-26T08:43:20.301Z,95533.1
2018-07-26T08:44:22.186Z,95529.9
2018-07-26T08:45:24.357Z,95535.2
2018-07-26T08:46:26.828Z,95536
2018-07-26T08:47:29.293Z,95536.8
2018-07-26T08:48:31.734Z,95533.7
2018-07-26T08:49:34.186Z,95535.7
2018-07-26T08:50:36.361Z,95535.3
2018-07-26T08:51:38.819Z,95534.8
2018-07-26T08:52:41.008Z,95535.8
2018-07-26T08:53:43.156Z,95542.6
2018-07-26T08:54:45.343Z,95539.3
2018-07-26T08:55:47.238Z,95537
2018-07-26T08:56:49.692Z,95540.7
2018-07-26T08:57:51.892Z,95541
2018-07-26T08:58:54.354Z,95532.9
2018-07-26T08:59:55.951Z,95533.4
2018-07-26T09:00:58.424Z,95533.7
2018-07-26T09:02:00.857Z,95535
2018-07-26T09:03:03.311Z,95528.7
2018-07-26T09:04:05.497Z,95534.5
2018-07-26T09:05:07.956Z,95537
2018-07-26T09:06:10.137Z,95530.7
2018-07-26T09:07:12.317Z,95537.5
2018-07-26T09:08:14.506Z,95537.7
2018-07-26T09:09:16.961Z,95539.9
2018-07-26T09:10:19.147Z,95539.9
2018-07-26T09:11:21.327Z,95538.2
2018-07-26T09:12:23.776Z,95536.3
2018-07-26T09:13:26.443Z,95539.3
2018-07-26T09:14:28.597Z,95534.4
2018-07-26T09:15:31.044Z,95534.2
2018-07-26T09:16:33.493Z,95528.6
2018-07-26T09:17:35.938Z,95530.3
2018-07-26T09:18:37.832Z,95536.7
2018-07-26T09:19:40.585Z,95537.7
2018-07-26T09:20:42.455Z,95535.8
2018-07-26T09:21:44.102Z,95540
2018-07-26T09:22:46.285Z,95534.1
2018-07-26T09:23:48.732Z,95539
2018-07-26T09:24:51.188Z,95536.5
2018-07-26T09:25:53.382Z,95540.8
2018-07-26T09:26:55.268Z,95536.5
2018-07-26T09:27:57.468Z,95535
2018-07-26T09:28:59.393Z,95538.7
2018-07-26T09:30:01.672Z,95539.8
2018-07-26T09:31:03.847Z,95540.9
2018-07-26T09:32:05.749Z,95533.7
2018-07-26T09:33:08.040Z,95535.6
2018-07-26T09:34:10.173Z,95535.6
2018-07-26T09:35:12.353Z,95533.7
2018-07-26T09:36:14.806Z,95529.9
2018-07-26T09:37:16.981Z,95527.9
2018-07-26T09:38:18.857Z,95526.5
2018-07-26T09:39:21.024Z,95529.3
2018-07-26T09:40:23.473Z,95522.7
2018-07-26T09:41:25.657Z,95522
2018-07-26T09:42:28.105Z,95525.5
2018-07-26T09:43:30.559Z,95527.5
2018-07-26T09:44:32.736Z,95524.2
2018-07-26T09:45:34.627Z,95530.8
2018-07-26T09:46:37.082Z,95525.9
2018-07-26T09:47:39.004Z,95526.6
2018-07-26T09:48:41.174Z,95531.1
2018-07-26T09:49:43.833Z,95524.9
2018-07-26T09:50:46.142Z,95523.1
2018-07-26T09:51:48.056Z,95529.1
2018-07-26T09:52:50.230Z,95529.1
2018-07-26T09:53:52.422Z,95527.1
2018-07-26T09:54:54.791Z,95526.3
2018-07-26T09:55:57.257Z,95526.7
2018-07-26T09:56:59.695Z,95526.5
2018-07-26T09:58:01.891Z,95529.8
2018-07-26T09:59:04.063Z,95523.9
2018-07-26T10:00:06.226Z,95526.3
2018-07-26T10:01:08.415Z,95522.1
2018-07-26T10:02:10.332Z,95522.5
2018-07-26T10:03:12.019Z,95519.4
2018-07-26T10:04:14.474Z,95528.1
2018-07-26T10:05:16.955Z,95519.7
2018-07-26T10:06:19.414Z,95518.6
2018-07-26T10:07:21.596Z,95518.8
2018-07-26T10:08:23.817Z,95520.6
2018-07-26T10:09:26.315Z,95512.7
2018-07-26T10:10:28.812Z,95516.4
2018-07-26T10:11:30.728Z,95509.8
2018-07-26T10:12:32.897Z,95511.4
2018-07-26T10:13:34.818Z,95512.3
2018-07-26T10:14:36.720Z,95508.8
2018-07-26T10:15:38.589Z,95514.4
2018-07-26T10:16:41.041Z,95506.4
2018-07-26T10:17:43.498Z,95504.9
2018-07-26T10:18:45.960Z,95508.6
2018-07-26T10:19:47.884Z,95512.1
2018-07-26T10:20:49.771Z,95512.1
2018-07-26T10:21:52.220Z,95513.9
2018-07-26T10:22:54.386Z,95508
2018-07-26T10:23:56.834Z,95505.5
2018-07-26T10:24:59.293Z,95502.8
2018-07-26T10:26:01.736Z,95508.2
2018-07-26T10:27:03.906Z,95510.6
2018-07-26T10:28:06.096Z,95504.9
2018-07-26T10:29:08.283Z,95506.5
2018-07-26T10:30:10.419Z,95504.9
2018-07-26T10:31:12.570Z,95508.8
2018-07-26T10:32:14.744Z,95507
2018-07-26T10:33:16.897Z,95508
2018-07-26T10:34:18.814Z,95509.5
2018-07-26T10:35:20.718Z,95507.2
2018-07-26T10:36:22.640Z,95506.2
2018-07-26T10:37:24.558Z,95505.7
2018-07-26T10:38:26.753Z,95503.7
2018-07-26T10:39:29.209Z,95504.8
2018-07-26T10:40:31.370Z,95505.5
2018-07-26T10:41:33.548Z,95505.3
2018-07-26T10:42:35.195Z,95498
2018-07-26T10:43:37.637Z,95505.2
2018-07-26T10:44:40.056Z,95506.1
2018-07-26T10:45:41.701Z,95505.4
2018-07-26T10:46:44.152Z,95501.6
2018-07-26T10:47:46.319Z,95496.8
2018-07-26T10:48:48.499Z,95499.5
2018-07-26T10:49:51.059Z,95502.1
2018-07-26T10:50:52.941Z,95500.9
2018-07-26T10:51:55.384Z,95502.3
2018-07-26T10:52:57.566Z,95506.2
2018-07-26T10:54:00.021Z,95506.4
2018-07-26T10:55:02.206Z,95500
2018-07-26T10:56:04.657Z,95504.8
2018-07-26T10:57:07.098Z,95504.2
2018-07-26T10:58:09.018Z,95503.6
2018-07-26T10:59:11.467Z,95503.5
2018-07-26T11:00:13.485Z,95505.4
2018-07-26T11:01:15.358Z,95502.7
2018-07-26T11:02:17.236Z,95500.3
2018-07-26T11:03:19.149Z,95498.8
2018-07-26T11:04:21.591Z,95501.5
2018-07-26T11:05:23.774Z,95504
2018-07-26T11:06:25.668Z,95501.6
2018-07-26T11:07:27.576Z,95500.7
2018-07-26T11:08:30.028Z,95500.4
2018-07-26T11:09:32.619Z,95502.4
2018-07-26T11:10:34.604Z,95496.1
2018-07-26T11:11:36.793Z,95490.6
2018-07-26T11:12:38.984Z,95491.8
2018-07-26T11:13:40.904Z,95491.1
2018-07-26T11:14:43.053Z,95495.5
2018-07-26T11:15:44.939Z,95495.8
2018-07-26T11:16:47.400Z,95495.7
2018-07-26T11:17:49.845Z,95488.4
2018-07-26T11:18:51.722Z,95495.3
2018-07-26T11:19:54.208Z,95490.1
2018-07-26T11:20:56.661Z,95485.3
2018-07-26T11:21:59.122Z,95486
2018-07-26T11:23:01.575Z,95482.7
2018-07-26T11:24:04.028Z,95488.2
2018-07-26T11:25:06.479Z,95485.9
2018-07-26T11:26:08.665Z,95490.9
2018-07-26T11:27:10.330Z,95488
2018-07-26T11:28:12.828Z,95490.6
2018-07-26T11:29:15.286Z,95482.3
2018-07-26T11:30:17.468Z,95484.4
2018-07-26T11:31:19.921Z,95489.9
2018-07-26T11:32:22.451Z,95489.9
2018-07-26T11:33:24.969Z,95490
2018-07-26T11:34:27.409Z,95489.4
2018-07-26T11:35:29.867Z,95492
2018-07-26T11:36:32.068Z,95480.6
2018-07-26T11:37:33.976Z,95488
2018-07-26T11:38:36.168Z,95481.5
2018-07-26T11:39:38.611Z,95483.9
2018-07-26T11:40:40.787Z,95484
2018-07-26T11:41:42.864Z,95483.5
2018-07-26T11:42:45.359Z,95484.3
2018-07-26T11:43:47.788Z,95488.2
2018-07-26T11:44:49.598Z,95488.3
2018-07-26T11:45:52.044Z,95486.1
2018-07-26T11:46:54.218Z,95477.8
2018-07-26T11:47:56.128Z,95483.2
2018-07-26T11:48:58.579Z,95479.1
2018-07-26T11:50:01.191Z,95481.8
2018-07-26T11:51:03.448Z,95481.8
2018-07-26T11:52:05.642Z,95479.3
2018-07-26T11:53:07.830Z,95480.6
2018-07-26T11:54:10.019Z,95479.8
2018-07-26T11:55:11.942Z,95477.8
2018-07-26T11:56:14.378Z,95479.8
2018-07-26T11:57:16.304Z,95476.1
2018-07-26T11:58:18.199Z,95470.9
2018-07-26T11:59:20.716Z,95474.1
2018-07-26T12:00:22.912Z,95472.8
2018-07-26T12:01:25.395Z,95480
2018-07-26T12:02:28.192Z,95478.9
2018-07-26T12:03:30.550Z,95475.9
2018-07-26T12:04:32.719Z,95473
2018-07-26T12:05:34.891Z,95468.5
2018-07-26T12:06:37.081Z,95467.7
2018-07-26T12:07:38.988Z,95470.6
2018-07-26T12:08:41.439Z,95468.8
2018-07-26T12:09:43.592Z,95466.3
2018-07-26T12:10:46.053Z,95468.4
2018-07-26T12:11:48.491Z,95467.6
2018-07-26T12:12:50.409Z,95463.5
2018-07-26T12:13:52.847Z,95466.2
2018-07-26T12:14:55.297Z,95469.8
2018-07-26T12:15:57.481Z,95467.7
2018-07-26T12:16:59.917Z,95470
2018-07-26T12:18:02.368Z,95466.2
2018-07-26T12:19:04.813Z,95463.2
2018-07-26T12:20:07.272Z,95463.8
2018-07-26T12:21:09.711Z,95465.2
2018-07-26T12:22:11.877Z,95465.7
2018-07-26T12:23:14.508Z,95463
2018-07-26T12:24:16.952Z,95462.9
2018-07-26T12:25:19.095Z,95465.8
2018-07-26T12:26:21.251Z,95462.6
2018-07-26T12:27:23.416Z,95456.8
2018-07-26T12:28:25.878Z,95456.6
2018-07-26T12:29:28.334Z,95448.2
2018-07-26T12:30:30.514Z,95456.1
2018-07-26T12:31:32.961Z,95455.9
2018-07-26T12:32:35.412Z,95454.8
2018-07-26T12:33:37.574Z,95455.3
2018-07-26T12:34:39.771Z,95453.3
2018-07-26T12:35:41.692Z,95452
2018-07-26T12:36:43.906Z,95450.9